Aviation Digital Data Service (ADDS)

Output produced by METARs form (0135 UTC 22 October 2014)
found at http://aviationweather.gov/adds/metars/
 
KGFL 212324Z 2200/2224 01007KT P6SM VCSH OVC015 
     FM220500 01006KT 4SM BR VCSH OVC020 
     FM220900 01004KT 4SM BR VCSH SCT007 OVC015 
     FM221500 01007KT 3SM -RA BR SCT007 OVC010